sensor_id;sensor_type;location;lat;lon;timestamp;P1;durP1;ratioP1;P2;durP2;ratioP2
28447;SDS011;15675;52.870;-1.416;2023-04-25T00:02:20;20.42;;;5.00;;
28447;SDS011;15675;52.870;-1.416;2023-04-25T00:04:45;16.23;;;3.90;;
28447;SDS011;15675;52.870;-1.416;2023-04-25T00:07:14;14.07;;;3.80;;
28447;SDS011;15675;52.870;-1.416;2023-04-25T00:09:39;18.90;;;5.05;;
28447;SDS011;15675;52.870;-1.416;2023-04-25T00:12:05;8.48;;;3.70;;
28447;SDS011;15675;52.870;-1.416;2023-04-25T00:14:31;15.05;;;4.50;;
28447;SDS011;15675;52.870;-1.416;2023-04-25T00:16:59;17.25;;;3.95;;
28447;SDS011;15675;52.870;-1.416;2023-04-25T00:19:25;19.77;;;4.22;;
28447;SDS011;15675;52.870;-1.416;2023-04-25T00:21:52;13.18;;;4.40;;
28447;SDS011;15675;52.870;-1.416;2023-04-25T00:24:19;10.95;;;4.43;;
28447;SDS011;15675;52.870;-1.416;2023-04-25T00:26:45;13.23;;;4.20;;
28447;SDS011;15675;52.870;-1.416;2023-04-25T00:29:10;14.73;;;4.53;;
28447;SDS011;15675;52.870;-1.416;2023-04-25T00:31:36;10.05;;;3.40;;
28447;SDS011;15675;52.870;-1.416;2023-04-25T00:34:01;16.05;;;4.22;;
28447;SDS011;15675;52.870;-1.416;2023-04-25T00:36:27;12.65;;;4.15;;
28447;SDS011;15675;52.870;-1.416;2023-04-25T00:38:53;13.23;;;3.78;;
28447;SDS011;15675;52.870;-1.416;2023-04-25T00:41:20;10.48;;;3.95;;
28447;SDS011;15675;52.870;-1.416;2023-04-25T00:43:45;10.00;;;3.45;;
28447;SDS011;15675;52.870;-1.416;2023-04-25T00:46:12;13.77;;;3.67;;
28447;SDS011;15675;52.870;-1.416;2023-04-25T00:48:38;10.05;;;3.72;;
28447;SDS011;15675;52.870;-1.416;2023-04-25T00:51:03;16.05;;;3.80;;
28447;SDS011;15675;52.870;-1.416;2023-04-25T00:53:29;13.45;;;3.95;;
28447;SDS011;15675;52.870;-1.416;2023-04-25T00:55:57;10.48;;;3.75;;
28447;SDS011;15675;52.870;-1.416;2023-04-25T00:58:23;9.80;;;3.65;;
28447;SDS011;15675;52.870;-1.416;2023-04-25T01:00:50;14.15;;;3.58;;
28447;SDS011;15675;52.870;-1.416;2023-04-25T01:03:17;14.95;;;3.28;;
28447;SDS011;15675;52.870;-1.416;2023-04-25T01:05:45;9.45;;;3.88;;
28447;SDS011;15675;52.870;-1.416;2023-04-25T01:08:12;12.50;;;3.10;;
28447;SDS011;15675;52.870;-1.416;2023-04-25T01:10:38;11.73;;;3.47;;
28447;SDS011;15675;52.870;-1.416;2023-04-25T01:13:04;12.55;;;3.70;;
28447;SDS011;15675;52.870;-1.416;2023-04-25T01:15:29;8.32;;;3.58;;
28447;SDS011;15675;52.870;-1.416;2023-04-25T01:17:55;18.08;;;3.88;;
28447;SDS011;15675;52.870;-1.416;2023-04-25T01:20:21;12.73;;;3.78;;
28447;SDS011;15675;52.870;-1.416;2023-04-25T01:22:48;14.50;;;3.63;;
28447;SDS011;15675;52.870;-1.416;2023-04-25T01:25:15;8.48;;;2.88;;
28447;SDS011;15675;52.870;-1.416;2023-04-25T01:27:42;17.70;;;3.63;;
28447;SDS011;15675;52.870;-1.416;2023-04-25T01:30:07;7.30;;;3.08;;
28447;SDS011;15675;52.870;-1.416;2023-04-25T01:32:33;7.97;;;3.78;;
28447;SDS011;15675;52.870;-1.416;2023-04-25T01:35:04;13.73;;;3.83;;
28447;SDS011;15675;52.870;-1.416;2023-04-25T01:37:35;9.77;;;3.83;;
28447;SDS011;15675;52.870;-1.416;2023-04-25T01:40:08;11.15;;;3.53;;
28447;SDS011;15675;52.870;-1.416;2023-04-25T01:42:35;24.98;;;3.92;;
28447;SDS011;15675;52.870;-1.416;2023-04-25T01:45:02;14.32;;;3.92;;
28447;SDS011;15675;52.870;-1.416;2023-04-25T01:47:28;14.80;;;3.42;;
28447;SDS011;15675;52.870;-1.416;2023-04-25T01:49:54;10.77;;;3.35;;
28447;SDS011;15675;52.870;-1.416;2023-04-25T01:52:19;12.23;;;3.47;;
28447;SDS011;15675;52.870;-1.416;2023-04-25T01:54:45;17.48;;;3.58;;
28447;SDS011;15675;52.870;-1.416;2023-04-25T01:57:11;7.38;;;3.30;;
28447;SDS011;15675;52.870;-1.416;2023-04-25T01:59:37;15.00;;;3.08;;
28447;SDS011;15675;52.870;-1.416;2023-04-25T02:02:03;18.00;;;3.33;;
28447;SDS011;15675;52.870;-1.416;2023-04-25T02:04:29;13.18;;;2.90;;
28447;SDS011;15675;52.870;-1.416;2023-04-25T02:06:55;9.75;;;3.30;;
28447;SDS011;15675;52.870;-1.416;2023-04-25T02:09:21;12.38;;;3.40;;
28447;SDS011;15675;52.870;-1.416;2023-04-25T02:11:47;13.57;;;2.90;;
28447;SDS011;15675;52.870;-1.416;2023-04-25T02:14:12;11.77;;;3.13;;
28447;SDS011;15675;52.870;-1.416;2023-04-25T02:16:38;5.50;;;2.60;;
28447;SDS011;15675;52.870;-1.416;2023-04-25T02:19:04;11.85;;;4.00;;
28447;SDS011;15675;52.870;-1.416;2023-04-25T02:21:30;10.48;;;3.08;;
28447;SDS011;15675;52.870;-1.416;2023-04-25T02:23:56;12.80;;;2.95;;
28447;SDS011;15675;52.870;-1.416;2023-04-25T02:26:22;12.63;;;3.47;;
28447;SDS011;15675;52.870;-1.416;2023-04-25T02:28:52;13.90;;;3.47;;
28447;SDS011;15675;52.870;-1.416;2023-04-25T02:31:17;10.40;;;2.72;;
28447;SDS011;15675;52.870;-1.416;2023-04-25T02:33:43;10.65;;;3.25;;
28447;SDS011;15675;52.870;-1.416;2023-04-25T02:36:09;16.00;;;3.13;;
28447;SDS011;15675;52.870;-1.416;2023-04-25T02:38:35;5.95;;;2.50;;
28447;SDS011;15675;52.870;-1.416;2023-04-25T02:41:00;9.60;;;3.28;;
28447;SDS011;15675;52.870;-1.416;2023-04-25T02:43:26;7.90;;;3.25;;
28447;SDS011;15675;52.870;-1.416;2023-04-25T02:45:51;5.57;;;2.47;;
28447;SDS011;15675;52.870;-1.416;2023-04-25T02:48:17;9.35;;;2.90;;
28447;SDS011;15675;52.870;-1.416;2023-04-25T02:50:43;10.63;;;2.85;;
28447;SDS011;15675;52.870;-1.416;2023-04-25T02:53:08;11.68;;;3.08;;
28447;SDS011;15675;52.870;-1.416;2023-04-25T02:55:34;19.95;;;3.63;;
28447;SDS011;15675;52.870;-1.416;2023-04-25T02:57:59;12.20;;;3.92;;
28447;SDS011;15675;52.870;-1.416;2023-04-25T03:00:25;11.70;;;3.70;;
28447;SDS011;15675;52.870;-1.416;2023-04-25T03:02:50;8.40;;;2.60;;
28447;SDS011;15675;52.870;-1.416;2023-04-25T03:05:16;7.85;;;3.47;;
28447;SDS011;15675;52.870;-1.416;2023-04-25T03:07:42;10.70;;;3.45;;
28447;SDS011;15675;52.870;-1.416;2023-04-25T03:10:10;7.07;;;2.92;;
28447;SDS011;15675;52.870;-1.416;2023-04-25T03:12:35;17.30;;;3.40;;
28447;SDS011;15675;52.870;-1.416;2023-04-25T03:15:01;10.18;;;3.30;;
28447;SDS011;15675;52.870;-1.416;2023-04-25T03:17:28;12.20;;;3.35;;
28447;SDS011;15675;52.870;-1.416;2023-04-25T03:19:53;8.63;;;3.38;;
28447;SDS011;15675;52.870;-1.416;2023-04-25T03:22:19;7.72;;;2.78;;
28447;SDS011;15675;52.870;-1.416;2023-04-25T03:24:44;18.13;;;3.92;;
28447;SDS011;15675;52.870;-1.416;2023-04-25T03:27:10;10.85;;;3.42;;
28447;SDS011;15675;52.870;-1.416;2023-04-25T03:29:35;14.85;;;3.10;;
28447;SDS011;15675;52.870;-1.416;2023-04-25T03:32:01;7.03;;;3.08;;
28447;SDS011;15675;52.870;-1.416;2023-04-25T03:34:26;12.20;;;3.67;;
28447;SDS011;15675;52.870;-1.416;2023-04-25T03:36:53;9.77;;;3.10;;
28447;SDS011;15675;52.870;-1.416;2023-04-25T03:39:18;12.10;;;3.92;;
28447;SDS011;15675;52.870;-1.416;2023-04-25T03:41:44;9.73;;;3.13;;
28447;SDS011;15675;52.870;-1.416;2023-04-25T03:44:09;9.80;;;3.30;;
28447;SDS011;15675;52.870;-1.416;2023-04-25T03:46:35;12.70;;;3.03;;
28447;SDS011;15675;52.870;-1.416;2023-04-25T03:49:00;19.52;;;3.72;;
28447;SDS011;15675;52.870;-1.416;2023-04-25T03:51:26;12.45;;;2.90;;
28447;SDS011;15675;52.870;-1.416;2023-04-25T03:53:52;9.13;;;3.45;;
28447;SDS011;15675;52.870;-1.416;2023-04-25T03:56:17;8.35;;;2.92;;
28447;SDS011;15675;52.870;-1.416;2023-04-25T03:58:43;15.70;;;3.65;;
28447;SDS011;15675;52.870;-1.416;2023-04-25T04:01:09;7.97;;;2.50;;
28447;SDS011;15675;52.870;-1.416;2023-04-25T04:03:35;7.95;;;2.55;;
28447;SDS011;15675;52.870;-1.416;2023-04-25T04:06:04;10.65;;;3.13;;
28447;SDS011;15675;52.870;-1.416;2023-04-25T04:08:31;18.75;;;3.13;;
28447;SDS011;15675;52.870;-1.416;2023-04-25T04:10:57;10.27;;;3.35;;
28447;SDS011;15675;52.870;-1.416;2023-04-25T04:13:25;14.63;;;3.72;;
28447;SDS011;15675;52.870;-1.416;2023-04-25T04:15:54;10.95;;;2.92;;
28447;SDS011;15675;52.870;-1.416;2023-04-25T04:18:20;14.35;;;3.60;;
28447;SDS011;15675;52.870;-1.416;2023-04-25T04:20:46;8.07;;;3.25;;
28447;SDS011;15675;52.870;-1.416;2023-04-25T04:23:12;12.35;;;3.17;;
28447;SDS011;15675;52.870;-1.416;2023-04-25T04:25:37;15.75;;;4.32;;
28447;SDS011;15675;52.870;-1.416;2023-04-25T04:28:04;12.52;;;3.42;;
28447;SDS011;15675;52.870;-1.416;2023-04-25T04:30:31;13.35;;;3.28;;
28447;SDS011;15675;52.870;-1.416;2023-04-25T04:32:57;9.25;;;3.10;;
28447;SDS011;15675;52.870;-1.416;2023-04-25T04:35:23;14.05;;;3.72;;
28447;SDS011;15675;52.870;-1.416;2023-04-25T04:37:49;14.88;;;3.10;;
28447;SDS011;15675;52.870;-1.416;2023-04-25T04:40:15;11.07;;;3.28;;
28447;SDS011;15675;52.870;-1.416;2023-04-25T04:42:42;9.07;;;3.67;;
28447;SDS011;15675;52.870;-1.416;2023-04-25T04:45:08;10.20;;;2.92;;
28447;SDS011;15675;52.870;-1.416;2023-04-25T04:47:35;7.57;;;3.10;;
28447;SDS011;15675;52.870;-1.416;2023-04-25T04:50:02;6.32;;;2.72;;
28447;SDS011;15675;52.870;-1.416;2023-04-25T04:52:29;12.40;;;3.17;;
28447;SDS011;15675;52.870;-1.416;2023-04-25T04:54:55;8.88;;;3.00;;
28447;SDS011;15675;52.870;-1.416;2023-04-25T04:57:20;17.42;;;3.47;;
28447;SDS011;15675;52.870;-1.416;2023-04-25T04:59:46;10.25;;;2.78;;
28447;SDS011;15675;52.870;-1.416;2023-04-25T05:02:11;16.98;;;3.45;;
28447;SDS011;15675;52.870;-1.416;2023-04-25T05:04:37;11.38;;;2.88;;
28447;SDS011;15675;52.870;-1.416;2023-04-25T05:07:02;7.20;;;3.28;;
28447;SDS011;15675;52.870;-1.416;2023-04-25T05:09:28;6.70;;;2.70;;
28447;SDS011;15675;52.870;-1.416;2023-04-25T05:11:53;8.95;;;3.05;;
28447;SDS011;15675;52.870;-1.416;2023-04-25T05:14:19;10.65;;;3.30;;
28447;SDS011;15675;52.870;-1.416;2023-04-25T05:16:44;11.18;;;3.15;;
28447;SDS011;15675;52.870;-1.416;2023-04-25T05:19:10;10.68;;;2.88;;
28447;SDS011;15675;52.870;-1.416;2023-04-25T05:21:35;13.55;;;2.97;;
28447;SDS011;15675;52.870;-1.416;2023-04-25T05:24:01;12.15;;;3.25;;
28447;SDS011;15675;52.870;-1.416;2023-04-25T05:26:27;10.35;;;2.97;;
28447;SDS011;15675;52.870;-1.416;2023-04-25T05:28:56;8.95;;;3.08;;
28447;SDS011;15675;52.870;-1.416;2023-04-25T05:31:22;19.40;;;3.30;;
28447;SDS011;15675;52.870;-1.416;2023-04-25T05:33:48;13.45;;;2.60;;
28447;SDS011;15675;52.870;-1.416;2023-04-25T05:36:13;10.68;;;2.97;;
28447;SDS011;15675;52.870;-1.416;2023-04-25T05:38:39;9.90;;;2.67;;
28447;SDS011;15675;52.870;-1.416;2023-04-25T05:41:04;11.45;;;3.00;;
28447;SDS011;15675;52.870;-1.416;2023-04-25T05:43:30;10.70;;;2.40;;
28447;SDS011;15675;52.870;-1.416;2023-04-25T05:45:55;14.07;;;3.00;;
28447;SDS011;15675;52.870;-1.416;2023-04-25T05:48:21;7.65;;;2.50;;
28447;SDS011;15675;52.870;-1.416;2023-04-25T05:50:47;16.77;;;3.22;;
28447;SDS011;15675;52.870;-1.416;2023-04-25T05:53:12;10.50;;;3.10;;
28447;SDS011;15675;52.870;-1.416;2023-04-25T05:55:38;11.40;;;2.88;;
28447;SDS011;15675;52.870;-1.416;2023-04-25T05:58:04;13.02;;;4.32;;
28447;SDS011;15675;52.870;-1.416;2023-04-25T06:00:31;13.65;;;4.40;;
28447;SDS011;15675;52.870;-1.416;2023-04-25T06:02:57;6.85;;;3.67;;
28447;SDS011;15675;52.870;-1.416;2023-04-25T06:05:23;10.18;;;3.17;;
28447;SDS011;15675;52.870;-1.416;2023-04-25T06:07:49;12.52;;;3.38;;
28447;SDS011;15675;52.870;-1.416;2023-04-25T06:10:15;12.65;;;3.25;;
28447;SDS011;15675;52.870;-1.416;2023-04-25T06:12:40;9.27;;;3.05;;
28447;SDS011;15675;52.870;-1.416;2023-04-25T06:15:06;8.18;;;3.40;;
28447;SDS011;15675;52.870;-1.416;2023-04-25T06:17:32;16.75;;;4.00;;
28447;SDS011;15675;52.870;-1.416;2023-04-25T06:19:58;9.73;;;2.80;;
28447;SDS011;15675;52.870;-1.416;2023-04-25T06:22:23;10.88;;;3.30;;
28447;SDS011;15675;52.870;-1.416;2023-04-25T06:24:49;7.13;;;2.33;;
28447;SDS011;15675;52.870;-1.416;2023-04-25T06:27:14;9.48;;;2.85;;
28447;SDS011;15675;52.870;-1.416;2023-04-25T06:29:40;14.43;;;3.40;;
28447;SDS011;15675;52.870;-1.416;2023-04-25T06:32:05;7.55;;;2.70;;
28447;SDS011;15675;52.870;-1.416;2023-04-25T06:34:31;11.80;;;3.35;;
28447;SDS011;15675;52.870;-1.416;2023-04-25T06:36:56;12.77;;;2.65;;
28447;SDS011;15675;52.870;-1.416;2023-04-25T06:39:22;8.45;;;2.67;;
28447;SDS011;15675;52.870;-1.416;2023-04-25T06:41:48;9.05;;;3.10;;
28447;SDS011;15675;52.870;-1.416;2023-04-25T06:44:14;8.38;;;2.72;;
28447;SDS011;15675;52.870;-1.416;2023-04-25T06:46:40;10.85;;;3.05;;
28447;SDS011;15675;52.870;-1.416;2023-04-25T06:49:06;13.10;;;2.88;;
28447;SDS011;15675;52.870;-1.416;2023-04-25T06:51:31;9.10;;;3.03;;
28447;SDS011;15675;52.870;-1.416;2023-04-25T06:53:57;9.60;;;2.97;;
28447;SDS011;15675;52.870;-1.416;2023-04-25T06:56:22;14.13;;;2.97;;
28447;SDS011;15675;52.870;-1.416;2023-04-25T06:58:48;14.52;;;2.88;;
28447;SDS011;15675;52.870;-1.416;2023-04-25T07:01:14;20.48;;;2.95;;
28447;SDS011;15675;52.870;-1.416;2023-04-25T07:03:40;11.30;;;2.45;;
28447;SDS011;15675;52.870;-1.416;2023-04-25T07:06:05;8.23;;;2.50;;
28447;SDS011;15675;52.870;-1.416;2023-04-25T07:08:31;7.45;;;2.45;;
28447;SDS011;15675;52.870;-1.416;2023-04-25T07:10:56;11.07;;;2.55;;
28447;SDS011;15675;52.870;-1.416;2023-04-25T07:13:22;13.73;;;2.20;;
28447;SDS011;15675;52.870;-1.416;2023-04-25T07:15:47;7.60;;;2.33;;
28447;SDS011;15675;52.870;-1.416;2023-04-25T07:18:13;9.80;;;2.63;;
28447;SDS011;15675;52.870;-1.416;2023-04-25T07:20:39;8.20;;;1.80;;
28447;SDS011;15675;52.870;-1.416;2023-04-25T07:23:04;11.85;;;3.00;;
28447;SDS011;15675;52.870;-1.416;2023-04-25T07:25:30;10.57;;;1.88;;
28447;SDS011;15675;52.870;-1.416;2023-04-25T07:27:56;6.45;;;2.65;;
28447;SDS011;15675;52.870;-1.416;2023-04-25T07:30:22;5.07;;;1.95;;
28447;SDS011;15675;52.870;-1.416;2023-04-25T07:32:48;14.02;;;2.10;;
28447;SDS011;15675;52.870;-1.416;2023-04-25T07:35:16;9.73;;;2.28;;
28447;SDS011;15675;52.870;-1.416;2023-04-25T07:37:41;13.52;;;2.17;;
28447;SDS011;15675;52.870;-1.416;2023-04-25T07:40:07;5.90;;;1.88;;
28447;SDS011;15675;52.870;-1.416;2023-04-25T07:42:34;9.02;;;1.85;;
28447;SDS011;15675;52.870;-1.416;2023-04-25T07:45:00;7.75;;;2.10;;
28447;SDS011;15675;52.870;-1.416;2023-04-25T07:47:26;6.32;;;1.80;;
28447;SDS011;15675;52.870;-1.416;2023-04-25T07:49:52;5.13;;;2.10;;
28447;SDS011;15675;52.870;-1.416;2023-04-25T07:52:18;10.55;;;2.03;;
28447;SDS011;15675;52.870;-1.416;2023-04-25T07:54:43;9.70;;;1.67;;
28447;SDS011;15675;52.870;-1.416;2023-04-25T07:57:09;6.82;;;1.95;;
28447;SDS011;15675;52.870;-1.416;2023-04-25T07:59:34;8.73;;;2.40;;
28447;SDS011;15675;52.870;-1.416;2023-04-25T08:02:00;7.55;;;1.83;;
28447;SDS011;15675;52.870;-1.416;2023-04-25T08:04:27;7.38;;;1.98;;
28447;SDS011;15675;52.870;-1.416;2023-04-25T08:06:53;6.93;;;1.60;;
28447;SDS011;15675;52.870;-1.416;2023-04-25T08:09:19;13.07;;;2.00;;
28447;SDS011;15675;52.870;-1.416;2023-04-25T08:11:45;9.15;;;2.00;;
28447;SDS011;15675;52.870;-1.416;2023-04-25T08:14:12;8.48;;;2.03;;
28447;SDS011;15675;52.870;-1.416;2023-04-25T08:16:38;12.38;;;2.05;;
28447;SDS011;15675;52.870;-1.416;2023-04-25T08:19:03;7.38;;;2.15;;
28447;SDS011;15675;52.870;-1.416;2023-04-25T08:21:30;10.07;;;1.92;;
28447;SDS011;15675;52.870;-1.416;2023-04-25T08:23:56;10.07;;;3.10;;
28447;SDS011;15675;52.870;-1.416;2023-04-25T08:26:23;6.63;;;2.63;;
28447;SDS011;15675;52.870;-1.416;2023-04-25T08:28:49;5.53;;;2.20;;
28447;SDS011;15675;52.870;-1.416;2023-04-25T08:31:15;10.63;;;2.35;;
28447;SDS011;15675;52.870;-1.416;2023-04-25T08:33:41;8.40;;;1.95;;
28447;SDS011;15675;52.870;-1.416;2023-04-25T08:36:07;5.40;;;1.70;;
28447;SDS011;15675;52.870;-1.416;2023-04-25T08:38:33;7.45;;;2.58;;
28447;SDS011;15675;52.870;-1.416;2023-04-25T08:40:59;9.75;;;1.80;;
28447;SDS011;15675;52.870;-1.416;2023-04-25T08:43:26;7.25;;;2.53;;
28447;SDS011;15675;52.870;-1.416;2023-04-25T08:45:53;5.80;;;1.80;;
28447;SDS011;15675;52.870;-1.416;2023-04-25T08:48:26;7.78;;;2.10;;
28447;SDS011;15675;52.870;-1.416;2023-04-25T08:50:54;7.32;;;1.80;;
28447;SDS011;15675;52.870;-1.416;2023-04-25T08:53:28;5.53;;;1.83;;
28447;SDS011;15675;52.870;-1.416;2023-04-25T08:55:56;9.07;;;1.90;;
28447;SDS011;15675;52.870;-1.416;2023-04-25T08:58:23;6.40;;;1.80;;
28447;SDS011;15675;52.870;-1.416;2023-04-25T09:00:49;6.88;;;1.85;;
28447;SDS011;15675;52.870;-1.416;2023-04-25T09:03:16;5.63;;;1.80;;
28447;SDS011;15675;52.870;-1.416;2023-04-25T09:05:42;4.63;;;1.73;;
28447;SDS011;15675;52.870;-1.416;2023-04-25T09:08:08;5.82;;;2.20;;
28447;SDS011;15675;52.870;-1.416;2023-04-25T09:10:34;7.63;;;2.15;;
28447;SDS011;15675;52.870;-1.416;2023-04-25T09:13:04;9.20;;;2.10;;
28447;SDS011;15675;52.870;-1.416;2023-04-25T09:15:31;6.57;;;1.92;;
28447;SDS011;15675;52.870;-1.416;2023-04-25T09:18:00;6.35;;;1.67;;
28447;SDS011;15675;52.870;-1.416;2023-04-25T09:20:26;6.65;;;1.75;;
28447;SDS011;15675;52.870;-1.416;2023-04-25T09:23:02;9.20;;;1.73;;
28447;SDS011;15675;52.870;-1.416;2023-04-25T09:25:28;4.93;;;2.00;;
28447;SDS011;15675;52.870;-1.416;2023-04-25T09:28:03;7.10;;;1.65;;
28447;SDS011;15675;52.870;-1.416;2023-04-25T09:30:30;5.85;;;1.40;;
28447;SDS011;15675;52.870;-1.416;2023-04-25T09:32:57;5.38;;;1.70;;
28447;SDS011;15675;52.870;-1.416;2023-04-25T09:35:29;10.10;;;1.83;;
28447;SDS011;15675;52.870;-1.416;2023-04-25T09:38:00;4.63;;;1.75;;
28447;SDS011;15675;52.870;-1.416;2023-04-25T09:40:26;7.35;;;1.70;;
28447;SDS011;15675;52.870;-1.416;2023-04-25T09:42:51;8.85;;;1.80;;
28447;SDS011;15675;52.870;-1.416;2023-04-25T09:45:17;3.45;;;1.45;;
28447;SDS011;15675;52.870;-1.416;2023-04-25T09:47:42;3.70;;;1.70;;
28447;SDS011;15675;52.870;-1.416;2023-04-25T09:50:14;5.65;;;1.77;;
28447;SDS011;15675;52.870;-1.416;2023-04-25T09:52:41;6.20;;;1.50;;
28447;SDS011;15675;52.870;-1.416;2023-04-25T09:55:06;5.53;;;1.50;;
28447;SDS011;15675;52.870;-1.416;2023-04-25T09:57:32;9.75;;;1.98;;
28447;SDS011;15675;52.870;-1.416;2023-04-25T09:59:58;3.70;;;1.30;;
28447;SDS011;15675;52.870;-1.416;2023-04-25T10:02:26;6.10;;;1.90;;
28447;SDS011;15675;52.870;-1.416;2023-04-25T10:04:53;6.07;;;1.45;;
28447;SDS011;15675;52.870;-1.416;2023-04-25T10:07:22;5.63;;;1.50;;
28447;SDS011;15675;52.870;-1.416;2023-04-25T10:09:52;6.75;;;1.60;;
28447;SDS011;15675;52.870;-1.416;2023-04-25T10:14:50;3.38;;;1.70;;
28447;SDS011;15675;52.870;-1.416;2023-04-25T10:17:16;11.35;;;2.10;;
28447;SDS011;15675;52.870;-1.416;2023-04-25T10:19:42;7.07;;;2.17;;
28447;SDS011;15675;52.870;-1.416;2023-04-25T10:22:11;2.13;;;1.27;;
28447;SDS011;15675;52.870;-1.416;2023-04-25T10:24:40;5.93;;;1.65;;
28447;SDS011;15675;52.870;-1.416;2023-04-25T10:27:06;5.63;;;1.60;;
28447;SDS011;15675;52.870;-1.416;2023-04-25T10:29:32;5.15;;;1.75;;
28447;SDS011;15675;52.870;-1.416;2023-04-25T10:31:58;6.60;;;1.50;;
28447;SDS011;15675;52.870;-1.416;2023-04-25T10:34:24;5.90;;;1.75;;
28447;SDS011;15675;52.870;-1.416;2023-04-25T10:37:03;5.57;;;1.75;;
28447;SDS011;15675;52.870;-1.416;2023-04-25T10:39:29;6.28;;;1.88;;
28447;SDS011;15675;52.870;-1.416;2023-04-25T10:41:56;8.43;;;2.10;;
28447;SDS011;15675;52.870;-1.416;2023-04-25T10:44:26;5.90;;;2.03;;
28447;SDS011;15675;52.870;-1.416;2023-04-25T10:46:55;8.70;;;1.98;;
28447;SDS011;15675;52.870;-1.416;2023-04-25T10:54:48;5.13;;;2.10;;
28447;SDS011;15675;52.870;-1.416;2023-04-25T11:00:13;5.78;;;1.83;;
28447;SDS011;15675;52.870;-1.416;2023-04-25T11:02:53;6.20;;;1.92;;
28447;SDS011;15675;52.870;-1.416;2023-04-25T11:05:29;4.03;;;1.73;;
28447;SDS011;15675;52.870;-1.416;2023-04-25T11:07:56;5.07;;;1.60;;
28447;SDS011;15675;52.870;-1.416;2023-04-25T11:10:29;4.38;;;1.45;;
28447;SDS011;15675;52.870;-1.416;2023-04-25T11:12:56;3.28;;;1.70;;
28447;SDS011;15675;52.870;-1.416;2023-04-25T11:15:22;6.57;;;2.00;;
28447;SDS011;15675;52.870;-1.416;2023-04-25T11:17:50;3.58;;;1.70;;
28447;SDS011;15675;52.870;-1.416;2023-04-25T11:20:16;5.38;;;1.85;;
28447;SDS011;15675;52.870;-1.416;2023-04-25T11:22:45;5.05;;;1.27;;
28447;SDS011;15675;52.870;-1.416;2023-04-25T11:25:12;5.55;;;1.90;;
28447;SDS011;15675;52.870;-1.416;2023-04-25T11:27:52;3.55;;;1.75;;
28447;SDS011;15675;52.870;-1.416;2023-04-25T11:30:19;5.03;;;1.83;;
28447;SDS011;15675;52.870;-1.416;2023-04-25T11:32:45;4.78;;;1.90;;
28447;SDS011;15675;52.870;-1.416;2023-04-25T11:35:11;3.60;;;1.83;;
28447;SDS011;15675;52.870;-1.416;2023-04-25T11:37:41;4.20;;;1.80;;
28447;SDS011;15675;52.870;-1.416;2023-04-25T11:40:07;5.25;;;1.75;;
28447;SDS011;15675;52.870;-1.416;2023-04-25T11:42:38;4.55;;;1.60;;
28447;SDS011;15675;52.870;-1.416;2023-04-25T11:45:04;5.13;;;1.73;;
28447;SDS011;15675;52.870;-1.416;2023-04-25T11:47:31;4.25;;;1.80;;
28447;SDS011;15675;52.870;-1.416;2023-04-25T11:50:02;6.55;;;1.60;;
28447;SDS011;15675;52.870;-1.416;2023-04-25T11:52:41;4.15;;;1.80;;
28447;SDS011;15675;52.870;-1.416;2023-04-25T11:55:15;2.83;;;1.65;;
28447;SDS011;15675;52.870;-1.416;2023-04-25T11:57:42;5.20;;;1.95;;
28447;SDS011;15675;52.870;-1.416;2023-04-25T12:00:10;4.82;;;1.83;;
28447;SDS011;15675;52.870;-1.416;2023-04-25T12:02:44;6.00;;;2.03;;
28447;SDS011;15675;52.870;-1.416;2023-04-25T12:05:18;5.93;;;1.77;;
28447;SDS011;15675;52.870;-1.416;2023-04-25T12:07:45;6.07;;;1.67;;
28447;SDS011;15675;52.870;-1.416;2023-04-25T12:10:12;2.53;;;1.73;;
28447;SDS011;15675;52.870;-1.416;2023-04-25T12:12:43;7.07;;;2.63;;
28447;SDS011;15675;52.870;-1.416;2023-04-25T12:15:10;4.07;;;2.10;;
28447;SDS011;15675;52.870;-1.416;2023-04-25T12:17:37;4.00;;;2.20;;
28447;SDS011;15675;52.870;-1.416;2023-04-25T12:20:10;7.32;;;2.13;;
28447;SDS011;15675;52.870;-1.416;2023-04-25T12:22:40;6.22;;;2.08;;
28447;SDS011;15675;52.870;-1.416;2023-04-25T12:25:13;3.75;;;2.00;;
28447;SDS011;15675;52.870;-1.416;2023-04-25T12:28:11;7.13;;;2.42;;
28447;SDS011;15675;52.870;-1.416;2023-04-25T12:33:28;5.35;;;1.88;;
28447;SDS011;15675;52.870;-1.416;2023-04-25T12:35:55;7.40;;;1.90;;
28447;SDS011;15675;52.870;-1.416;2023-04-25T12:40:55;5.07;;;2.30;;
28447;SDS011;15675;52.870;-1.416;2023-04-25T12:43:22;3.90;;;1.90;;
28447;SDS011;15675;52.870;-1.416;2023-04-25T12:45:48;5.15;;;1.77;;
28447;SDS011;15675;52.870;-1.416;2023-04-25T12:48:16;6.80;;;2.80;;
28447;SDS011;15675;52.870;-1.416;2023-04-25T12:50:42;4.68;;;2.10;;
28447;SDS011;15675;52.870;-1.416;2023-04-25T12:53:07;10.93;;;2.10;;
28447;SDS011;15675;52.870;-1.416;2023-04-25T12:55:33;5.00;;;2.67;;
28447;SDS011;15675;52.870;-1.416;2023-04-25T12:57:59;6.38;;;2.78;;
28447;SDS011;15675;52.870;-1.416;2023-04-25T13:00:24;4.63;;;2.55;;
28447;SDS011;15675;52.870;-1.416;2023-04-25T13:02:51;8.40;;;2.65;;
28447;SDS011;15675;52.870;-1.416;2023-04-25T13:05:17;3.65;;;2.00;;
28447;SDS011;15675;52.870;-1.416;2023-04-25T13:07:42;4.63;;;2.40;;
28447;SDS011;15675;52.870;-1.416;2023-04-25T13:10:08;4.25;;;2.20;;
28447;SDS011;15675;52.870;-1.416;2023-04-25T13:12:33;5.22;;;2.42;;
28447;SDS011;15675;52.870;-1.416;2023-04-25T13:14:59;4.85;;;2.40;;
28447;SDS011;15675;52.870;-1.416;2023-04-25T13:17:24;5.32;;;2.53;;
28447;SDS011;15675;52.870;-1.416;2023-04-25T13:19:50;5.53;;;1.73;;
28447;SDS011;15675;52.870;-1.416;2023-04-25T13:22:15;4.55;;;2.38;;
28447;SDS011;15675;52.870;-1.416;2023-04-25T13:24:42;8.80;;;2.83;;
28447;SDS011;15675;52.870;-1.416;2023-04-25T13:27:08;8.50;;;2.22;;
28447;SDS011;15675;52.870;-1.416;2023-04-25T13:29:34;5.95;;;2.28;;
28447;SDS011;15675;52.870;-1.416;2023-04-25T13:32:01;7.75;;;2.50;;
28447;SDS011;15675;52.870;-1.416;2023-04-25T13:34:27;5.82;;;2.58;;
28447;SDS011;15675;52.870;-1.416;2023-04-25T13:36:54;7.15;;;2.53;;
28447;SDS011;15675;52.870;-1.416;2023-04-25T13:39:20;6.72;;;2.72;;
28447;SDS011;15675;52.870;-1.416;2023-04-25T13:41:45;10.27;;;2.40;;
28447;SDS011;15675;52.870;-1.416;2023-04-25T13:44:11;3.47;;;2.67;;
28447;SDS011;15675;52.870;-1.416;2023-04-25T13:46:37;6.43;;;2.78;;
28447;SDS011;15675;52.870;-1.416;2023-04-25T13:49:03;15.77;;;3.38;;
28447;SDS011;15675;52.870;-1.416;2023-04-25T13:51:29;6.32;;;2.60;;
28447;SDS011;15675;52.870;-1.416;2023-04-25T13:53:56;8.07;;;2.40;;
28447;SDS011;15675;52.870;-1.416;2023-04-25T13:56:22;9.27;;;3.15;;
28447;SDS011;15675;52.870;-1.416;2023-04-25T13:58:48;6.38;;;3.17;;
28447;SDS011;15675;52.870;-1.416;2023-04-25T14:01:15;5.13;;;2.95;;
28447;SDS011;15675;52.870;-1.416;2023-04-25T14:03:40;4.93;;;2.60;;
28447;SDS011;15675;52.870;-1.416;2023-04-25T14:06:06;9.13;;;2.80;;
28447;SDS011;15675;52.870;-1.416;2023-04-25T14:08:33;8.23;;;2.90;;
28447;SDS011;15675;52.870;-1.416;2023-04-25T14:10:59;7.32;;;3.25;;
28447;SDS011;15675;52.870;-1.416;2023-04-25T14:13:25;6.45;;;2.60;;
28447;SDS011;15675;52.870;-1.416;2023-04-25T14:15:51;8.63;;;3.10;;
28447;SDS011;15675;52.870;-1.416;2023-04-25T14:18:17;8.25;;;2.70;;
28447;SDS011;15675;52.870;-1.416;2023-04-25T14:20:44;4.53;;;2.65;;
28447;SDS011;15675;52.870;-1.416;2023-04-25T14:23:10;6.00;;;2.28;;
28447;SDS011;15675;52.870;-1.416;2023-04-25T14:25:36;6.20;;;2.40;;
28447;SDS011;15675;52.870;-1.416;2023-04-25T14:28:02;6.97;;;2.67;;
28447;SDS011;15675;52.870;-1.416;2023-04-25T14:30:27;5.28;;;2.30;;
28447;SDS011;15675;52.870;-1.416;2023-04-25T14:32:53;5.90;;;2.42;;
28447;SDS011;15675;52.870;-1.416;2023-04-25T14:35:19;3.63;;;2.40;;
28447;SDS011;15675;52.870;-1.416;2023-04-25T14:37:45;7.95;;;2.90;;
28447;SDS011;15675;52.870;-1.416;2023-04-25T14:40:10;9.38;;;2.80;;
28447;SDS011;15675;52.870;-1.416;2023-04-25T14:42:38;8.02;;;2.65;;